createdAt,value
2022-09-24T00:00:44.435Z,6.50
2022-09-24T00:06:06.215Z,6.23
2022-09-24T00:11:26.583Z,7.23
2022-09-24T00:17:12.905Z,6.60
2022-09-24T00:22:38.506Z,6.73
2022-09-24T00:27:54.005Z,7.00
2022-09-24T00:38:32.856Z,9.73
2022-09-24T00:43:45.124Z,10.57
2022-09-24T00:49:05.148Z,8.13
2022-09-24T00:54:19.507Z,7.63
2022-09-24T00:59:29.735Z,6.27
2022-09-24T01:04:38.946Z,7.87
2022-09-24T01:10:01.298Z,8.13
2022-09-24T01:15:25.704Z,5.87
2022-09-24T01:20:57.184Z,6.10
2022-09-24T01:26:32.957Z,6.33
2022-09-24T01:37:26.305Z,7.97
2022-09-24T01:42:45.990Z,9.50
2022-09-24T01:48:00.382Z,7.33
2022-09-24T01:53:11.831Z,7.07
2022-09-24T01:58:29.234Z,10.77
2022-09-24T02:03:43.750Z,8.43
2022-09-24T02:08:56.074Z,6.87
2022-09-24T02:14:16.828Z,6.97
2022-09-24T02:19:37.038Z,9.37
2022-09-24T02:24:51.715Z,10.33
2022-09-24T02:29:57.110Z,7.30
2022-09-24T02:35:09.843Z,7.70
2022-09-24T02:40:20.856Z,6.83
2022-09-24T02:45:25.369Z,6.40
2022-09-24T02:50:29.588Z,6.37
2022-09-24T02:55:39.220Z,8.40
2022-09-24T03:00:42.049Z,5.40
2022-09-24T03:05:48.682Z,8.07
2022-09-24T03:10:51.690Z,7.03
2022-09-24T03:15:54.586Z,7.80
2022-09-24T03:21:04.043Z,8.83
2022-09-24T03:26:11.445Z,7.40
2022-09-24T03:31:16.970Z,7.30
2022-09-24T03:36:26.779Z,8.47
2022-09-24T03:41:29.758Z,7.27
2022-09-24T03:46:32.673Z,6.33
2022-09-24T03:51:40.821Z,8.33
2022-09-24T03:56:51.432Z,7.60
2022-09-24T04:01:57.329Z,6.27
2022-09-24T04:07:05.230Z,10.23
2022-09-24T04:12:08.219Z,7.40
2022-09-24T04:17:14.406Z,6.33
2022-09-24T04:22:22.363Z,8.87
2022-09-24T04:27:25.309Z,7.80
2022-09-24T04:32:28.338Z,8.37
2022-09-24T04:37:34.731Z,9.97
2022-09-24T04:42:46.310Z,6.53
2022-09-24T04:47:59.586Z,9.80
2022-09-24T04:53:06.009Z,7.73
2022-09-24T04:58:09.302Z,6.37
2022-09-24T05:03:11.999Z,8.00
2022-09-24T05:08:16.400Z,8.53
2022-09-24T05:13:19.047Z,6.60
2022-09-24T05:18:21.670Z,11.17
2022-09-24T05:23:25.914Z,9.00
2022-09-24T05:28:28.517Z,16.77
2022-09-24T05:33:31.162Z,11.63
2022-09-24T05:38:35.128Z,9.00
2022-09-24T05:43:38.470Z,10.10
2022-09-24T05:48:41.179Z,9.07
2022-09-24T05:53:45.156Z,8.10
2022-09-24T05:58:50.031Z,5.90
2022-09-24T06:03:52.670Z,8.37
2022-09-24T06:08:57.138Z,7.87
2022-09-24T06:13:59.879Z,9.50
2022-09-24T06:19:02.717Z,8.17
2022-09-24T06:24:07.136Z,9.43
2022-09-24T06:29:10.024Z,11.97
2022-09-24T06:34:12.737Z,8.40
2022-09-24T06:39:16.712Z,6.03
2022-09-24T06:44:19.592Z,6.37
2022-09-24T06:49:22.291Z,6.17
2022-09-24T06:54:26.366Z,9.77
2022-09-24T06:59:29.440Z,7.70
2022-09-24T07:04:32.115Z,8.77
2022-09-24T07:09:37.776Z,9.57
2022-09-24T07:14:40.409Z,8.40
2022-09-24T07:19:43.396Z,6.40
2022-09-24T07:24:47.987Z,8.70
2022-09-24T07:29:50.738Z,7.17
2022-09-24T07:34:54.153Z,9.00
2022-09-24T07:39:58.288Z,11.13
2022-09-24T07:45:01.168Z,6.65
2022-09-24T07:50:04.206Z,9.20
2022-09-24T07:55:09.446Z,8.10
2022-09-24T08:00:13.757Z,7.10
2022-09-24T08:05:18.033Z,7.40
2022-09-24T08:10:22.365Z,6.70
2022-09-24T08:15:25.024Z,6.68
2022-09-24T08:20:27.632Z,6.82
2022-09-24T08:25:31.810Z,7.05
2022-09-24T08:30:35.167Z,5.47
2022-09-24T08:35:39.999Z,6.97
2022-09-24T08:40:51.012Z,4.30
2022-09-24T08:46:15.191Z,5.28
2022-09-24T08:51:20.383Z,6.03
2022-09-24T08:56:28.540Z,5.35
2022-09-24T09:01:39.323Z,6.43
2022-09-24T09:07:03.298Z,6.13
2022-09-24T09:12:14.795Z,5.32
2022-09-24T09:17:30.277Z,5.47
2022-09-24T09:22:40.413Z,4.20
2022-09-24T09:27:44.505Z,5.13
2022-09-24T09:33:02.218Z,8.40
2022-09-24T09:38:17.128Z,5.47
2022-09-24T09:43:21.786Z,5.47
2022-09-24T09:48:29.182Z,6.53
2022-09-24T09:53:33.171Z,4.50
2022-09-24T09:58:40.981Z,4.85
2022-09-24T10:03:49.959Z,8.82
2022-09-24T10:08:52.748Z,4.30
2022-09-24T10:14:04.805Z,5.40
2022-09-24T10:19:18.109Z,6.85
2022-09-24T10:24:23.573Z,3.88
2022-09-24T10:29:51.820Z,7.03
2022-09-24T10:34:58.608Z,4.05
2022-09-24T10:40:03.021Z,3.03
2022-09-24T10:45:14.891Z,4.38
2022-09-24T10:50:30.354Z,4.85
2022-09-24T10:55:39.182Z,2.22
2022-09-24T11:00:53.204Z,2.95
2022-09-24T11:06:02.483Z,3.75
2022-09-24T11:11:21.855Z,2.20
2022-09-24T11:16:48.337Z,5.05
2022-09-24T11:22:10.239Z,3.08
2022-09-24T11:27:36.202Z,2.45
2022-09-24T11:32:50.515Z,3.92
2022-09-24T11:38:00.743Z,1.83
2022-09-24T11:43:19.304Z,3.63
2022-09-24T11:49:02.736Z,7.50
2022-09-24T11:54:11.419Z,5.82
2022-09-24T11:59:24.018Z,2.05
2022-09-24T12:04:34.361Z,3.90
2022-09-24T12:09:43.963Z,2.17
2022-09-24T12:14:53.955Z,3.28
2022-09-24T12:20:02.572Z,1.60
2022-09-24T12:25:08.436Z,3.78
2022-09-24T12:30:40.264Z,2.10
2022-09-24T12:35:56.379Z,4.20
2022-09-24T12:41:22.895Z,2.78
2022-09-24T12:46:28.842Z,3.80
2022-09-24T12:51:39.871Z,2.53
2022-09-24T12:56:42.740Z,3.72
2022-09-24T13:01:45.601Z,2.30
2022-09-24T13:06:49.941Z,1.80
2022-09-24T13:12:02.889Z,1.92
2022-09-24T13:17:07.549Z,4.13
2022-09-24T13:22:23.870Z,2.15
2022-09-24T13:27:37.687Z,2.60
2022-09-24T13:32:47.524Z,2.15
2022-09-24T13:37:56.703Z,2.40
2022-09-24T13:43:05.050Z,2.08
2022-09-24T13:48:20.178Z,1.67
2022-09-24T13:53:30.612Z,1.73
2022-09-24T13:58:34.906Z,2.05
2022-09-24T14:03:38.485Z,2.15
2022-09-24T14:08:44.523Z,1.85
2022-09-24T14:13:47.356Z,1.88
2022-09-24T14:19:01.005Z,2.05
2022-09-24T14:24:09.079Z,3.63
2022-09-24T14:29:14.936Z,4.72
2022-09-24T14:34:27.050Z,2.30
2022-09-24T14:39:31.128Z,2.80
2022-09-24T14:44:33.896Z,5.38
2022-09-24T14:49:45.178Z,2.30
2022-09-24T14:54:49.305Z,2.60
2022-09-24T14:59:52.944Z,2.45
2022-09-24T15:05:03.271Z,4.03
2022-09-24T15:10:21.817Z,3.95
2022-09-24T15:15:40.017Z,4.82
2022-09-24T15:20:44.218Z,3.65
2022-09-24T15:25:48.499Z,3.63
2022-09-24T15:30:51.147Z,4.25
2022-09-24T15:35:54.882Z,4.03
2022-09-24T15:40:59.259Z,3.45
2022-09-24T15:46:01.952Z,7.88
2022-09-24T15:51:10.990Z,4.72
2022-09-24T15:56:17.257Z,6.28
2022-09-24T16:01:20.266Z,8.25
2022-09-24T16:06:24.023Z,8.00
2022-09-24T16:11:28.289Z,11.82
2022-09-24T16:16:30.994Z,9.75
2022-09-24T16:21:33.695Z,7.38
2022-09-24T16:26:38.489Z,8.57
2022-09-24T16:31:41.188Z,5.25
2022-09-24T16:36:43.964Z,7.50
2022-09-24T16:41:50.345Z,16.40
2022-09-24T16:46:53.025Z,8.55
2022-09-24T16:51:55.896Z,11.65
2022-09-24T16:57:01.759Z,11.90
2022-09-24T17:02:04.450Z,12.10
2022-09-24T17:07:07.400Z,11.68
2022-09-24T17:12:11.579Z,8.73
2022-09-24T17:17:14.609Z,10.30
2022-09-24T17:22:17.211Z,8.27
2022-09-24T17:27:21.166Z,11.43
2022-09-24T17:32:23.794Z,9.82
2022-09-24T17:37:27.234Z,10.65
2022-09-24T17:42:33.071Z,12.77
2022-09-24T17:47:49.683Z,10.02
2022-09-24T17:52:52.266Z,10.20
2022-09-24T17:57:56.222Z,8.23
2022-09-24T18:02:58.876Z,8.00
2022-09-24T18:08:01.659Z,10.70
2022-09-24T18:13:05.962Z,11.70
2022-09-24T18:18:08.691Z,11.88
2022-09-24T18:23:11.331Z,12.18
2022-09-24T18:28:18.526Z,9.85
2022-09-24T18:33:21.562Z,8.90
2022-09-24T18:38:24.843Z,11.00
2022-09-24T18:43:30.413Z,12.93
2022-09-24T18:48:33.835Z,13.07
2022-09-24T18:53:36.465Z,10.90
2022-09-24T18:58:40.451Z,14.23
2022-09-24T19:03:43.410Z,9.98
2022-09-24T19:08:46.373Z,9.43
2022-09-24T19:13:52.022Z,8.75
2022-09-24T19:18:55.440Z,13.10
2022-09-24T19:23:59.433Z,9.60
2022-09-24T19:29:03.793Z,14.27
2022-09-24T19:34:08.074Z,14.65
2022-09-24T19:39:11.155Z,15.30
2022-09-24T19:44:16.583Z,19.48
2022-09-24T19:49:20.144Z,17.08
2022-09-24T19:54:22.964Z,20.00
2022-09-24T19:59:27.046Z,19.58
2022-09-24T20:04:29.800Z,23.25
2022-09-24T20:09:32.607Z,20.85
2022-09-24T20:14:36.550Z,19.08
2022-09-24T20:19:39.255Z,16.38
2022-09-24T20:24:41.969Z,16.40
2022-09-24T20:29:48.023Z,21.05
2022-09-24T20:34:50.658Z,16.98
2022-09-24T20:39:53.247Z,18.55
2022-09-24T20:44:57.403Z,13.85
2022-09-24T20:50:00.881Z,14.40
2022-09-24T20:55:03.866Z,18.23
2022-09-24T21:00:09.280Z,17.67
2022-09-24T21:05:12.249Z,13.80
2022-09-24T21:10:14.898Z,16.23
2022-09-24T21:15:18.899Z,14.18
2022-09-24T21:20:21.506Z,14.82
2022-09-24T21:25:52.400Z,13.60
2022-09-24T21:30:59.745Z,14.27
2022-09-24T21:36:02.872Z,18.10
2022-09-24T21:41:08.225Z,13.30
2022-09-24T21:46:13.748Z,15.63
2022-09-24T21:51:19.317Z,15.43
2022-09-24T21:56:22.964Z,15.27
2022-09-24T22:01:28.953Z,17.95
2022-09-24T22:06:32.716Z,16.13
2022-09-24T22:11:36.576Z,14.50
2022-09-24T22:16:40.783Z,15.10
2022-09-24T22:21:43.734Z,14.43
2022-09-24T22:26:46.928Z,16.35
2022-09-24T22:31:50.876Z,14.02
2022-09-24T22:36:53.555Z,14.73
2022-09-24T22:41:56.157Z,13.65
2022-09-24T22:47:00.158Z,14.02
2022-09-24T22:52:03.128Z,14.07
2022-09-24T22:57:05.727Z,11.77
2022-09-24T23:02:13.134Z,14.20
2022-09-24T23:07:16.897Z,14.88
2022-09-24T23:12:19.672Z,13.88
2022-09-24T23:17:23.608Z,14.75
2022-09-24T23:22:26.236Z,14.20
2022-09-24T23:27:29.054Z,14.00
2022-09-24T23:32:33.052Z,14.63
2022-09-24T23:37:36.243Z,15.88
2022-09-24T23:42:38.859Z,15.63
2022-09-24T23:47:42.802Z,13.65
2022-09-24T23:52:45.456Z,16.33
2022-09-24T23:57:48.072Z,12.80
